sensor_id;sensor_type;location;lat;lon;timestamp;P1;durP1;ratioP1;P2;durP2;ratioP2
22160;SDS011;49035;48.812;11.762;2022-09-27T00:01:02;2.10;;;1.90;;
22160;SDS011;49035;48.812;11.762;2022-09-27T00:03:29;3.55;;;1.90;;
22160;SDS011;49035;48.812;11.762;2022-09-27T00:06:02;4.55;;;2.03;;
22160;SDS011;49035;48.812;11.762;2022-09-27T00:08:39;2.30;;;1.75;;
22160;SDS011;49035;48.812;11.762;2022-09-27T00:11:17;2.60;;;1.67;;
22160;SDS011;49035;48.812;11.762;2022-09-27T00:13:54;2.15;;;1.80;;
22160;SDS011;49035;48.812;11.762;2022-09-27T00:16:21;2.47;;;2.00;;
22160;SDS011;49035;48.812;11.762;2022-09-27T00:18:48;4.10;;;2.05;;
22160;SDS011;49035;48.812;11.762;2022-09-27T00:21:14;2.20;;;1.83;;
22160;SDS011;49035;48.812;11.762;2022-09-27T00:23:40;3.77;;;1.90;;
22160;SDS011;49035;48.812;11.762;2022-09-27T00:26:07;2.90;;;2.13;;
22160;SDS011;49035;48.812;11.762;2022-09-27T00:28:35;5.23;;;2.07;;
22160;SDS011;49035;48.812;11.762;2022-09-27T00:31:00;3.47;;;2.08;;
22160;SDS011;49035;48.812;11.762;2022-09-27T00:33:26;3.35;;;2.10;;
22160;SDS011;49035;48.812;11.762;2022-09-27T00:35:52;2.87;;;2.33;;
22160;SDS011;49035;48.812;11.762;2022-09-27T00:38:18;3.47;;;2.37;;
22160;SDS011;49035;48.812;11.762;2022-09-27T00:40:43;3.23;;;2.43;;
22160;SDS011;49035;48.812;11.762;2022-09-27T00:43:17;5.50;;;2.47;;
22160;SDS011;49035;48.812;11.762;2022-09-27T00:45:46;3.60;;;2.27;;
22160;SDS011;49035;48.812;11.762;2022-09-27T00:48:16;3.37;;;2.43;;
22160;SDS011;49035;48.812;11.762;2022-09-27T00:50:45;3.63;;;2.40;;
22160;SDS011;49035;48.812;11.762;2022-09-27T00:53:19;2.30;;;2.10;;
22160;SDS011;49035;48.812;11.762;2022-09-27T00:55:50;2.97;;;2.40;;
22160;SDS011;49035;48.812;11.762;2022-09-27T00:58:20;2.53;;;2.10;;
22160;SDS011;49035;48.812;11.762;2022-09-27T01:00:52;4.37;;;2.77;;
22160;SDS011;49035;48.812;11.762;2022-09-27T01:03:26;4.83;;;2.40;;
22160;SDS011;49035;48.812;11.762;2022-09-27T01:05:56;3.53;;;2.50;;
22160;SDS011;49035;48.812;11.762;2022-09-27T01:08:23;2.67;;;2.43;;
22160;SDS011;49035;48.812;11.762;2022-09-27T01:11:02;2.70;;;2.47;;
22160;SDS011;49035;48.812;11.762;2022-09-27T01:14:36;3.17;;;2.50;;
22160;SDS011;49035;48.812;11.762;2022-09-27T01:20:06;3.80;;;2.57;;
22160;SDS011;49035;48.812;11.762;2022-09-27T01:23:08;4.37;;;2.40;;
22160;SDS011;49035;48.812;11.762;2022-09-27T01:28:43;4.07;;;2.87;;
22160;SDS011;49035;48.812;11.762;2022-09-27T01:31:20;3.40;;;2.40;;
22160;SDS011;49035;48.812;11.762;2022-09-27T01:45:06;3.23;;;2.23;;
22160;SDS011;49035;48.812;11.762;2022-09-27T01:50:08;3.77;;;2.10;;
22160;SDS011;49035;48.812;11.762;2022-09-27T01:53:01;4.30;;;2.50;;
22160;SDS011;49035;48.812;11.762;2022-09-27T01:55:34;4.70;;;2.30;;
22160;SDS011;49035;48.812;11.762;2022-09-27T01:58:12;4.63;;;2.10;;
22160;SDS011;49035;48.812;11.762;2022-09-27T02:00:43;3.50;;;2.10;;
22160;SDS011;49035;48.812;11.762;2022-09-27T02:03:17;3.83;;;2.03;;
22160;SDS011;49035;48.812;11.762;2022-09-27T02:05:49;4.17;;;2.20;;
22160;SDS011;49035;48.812;11.762;2022-09-27T02:08:46;3.13;;;2.40;;
22160;SDS011;49035;48.812;11.762;2022-09-27T02:11:18;3.03;;;2.17;;
22160;SDS011;49035;48.812;11.762;2022-09-27T02:13:46;2.80;;;2.07;;
22160;SDS011;49035;48.812;11.762;2022-09-27T02:16:28;3.03;;;2.00;;
22160;SDS011;49035;48.812;11.762;2022-09-27T02:21:54;3.90;;;2.60;;
22160;SDS011;49035;48.812;11.762;2022-09-27T02:24:32;3.67;;;2.73;;
22160;SDS011;49035;48.812;11.762;2022-09-27T02:27:17;4.20;;;2.20;;
22160;SDS011;49035;48.812;11.762;2022-09-27T02:29:57;6.93;;;2.53;;
22160;SDS011;49035;48.812;11.762;2022-09-27T02:32:27;4.17;;;2.27;;
22160;SDS011;49035;48.812;11.762;2022-09-27T02:34:57;2.83;;;2.30;;
22160;SDS011;49035;48.812;11.762;2022-09-27T02:37:26;2.33;;;2.03;;
22160;SDS011;49035;48.812;11.762;2022-09-27T02:39:52;3.63;;;2.40;;
22160;SDS011;49035;48.812;11.762;2022-09-27T02:42:17;5.87;;;2.63;;
22160;SDS011;49035;48.812;11.762;2022-09-27T02:44:43;4.30;;;2.73;;
22160;SDS011;49035;48.812;11.762;2022-09-27T02:52:41;3.03;;;2.00;;
22160;SDS011;49035;48.812;11.762;2022-09-27T02:55:37;3.00;;;2.30;;
22160;SDS011;49035;48.812;11.762;2022-09-27T02:58:42;3.53;;;2.00;;
22160;SDS011;49035;48.812;11.762;2022-09-27T03:03:58;6.57;;;2.30;;
22160;SDS011;49035;48.812;11.762;2022-09-27T03:06:32;5.00;;;2.03;;
22160;SDS011;49035;48.812;11.762;2022-09-27T03:09:00;3.57;;;1.60;;
22160;SDS011;49035;48.812;11.762;2022-09-27T03:11:26;3.93;;;1.80;;
22160;SDS011;49035;48.812;11.762;2022-09-27T03:13:51;4.47;;;1.83;;
22160;SDS011;49035;48.812;11.762;2022-09-27T03:16:17;1.83;;;1.57;;
22160;SDS011;49035;48.812;11.762;2022-09-27T03:18:43;1.60;;;1.50;;
22160;SDS011;49035;48.812;11.762;2022-09-27T03:21:08;2.47;;;1.40;;
22160;SDS011;49035;48.812;11.762;2022-09-27T03:23:34;1.80;;;1.70;;
22160;SDS011;49035;48.812;11.762;2022-09-27T03:25:59;4.10;;;1.63;;
22160;SDS011;49035;48.812;11.762;2022-09-27T03:28:25;2.20;;;1.70;;
22160;SDS011;49035;48.812;11.762;2022-09-27T03:30:53;1.45;;;1.35;;
22160;SDS011;49035;48.812;11.762;2022-09-27T03:33:19;1.27;;;1.17;;
22160;SDS011;49035;48.812;11.762;2022-09-27T03:35:44;4.67;;;1.67;;
22160;SDS011;49035;48.812;11.762;2022-09-27T03:38:10;2.10;;;1.60;;
22160;SDS011;49035;48.812;11.762;2022-09-27T03:40:36;2.17;;;1.30;;
22160;SDS011;49035;48.812;11.762;2022-09-27T03:43:02;1.30;;;1.20;;
22160;SDS011;49035;48.812;11.762;2022-09-27T03:45:28;1.47;;;1.30;;
22160;SDS011;49035;48.812;11.762;2022-09-27T03:47:53;3.20;;;1.40;;
22160;SDS011;49035;48.812;11.762;2022-09-27T03:50:19;1.80;;;1.20;;
22160;SDS011;49035;48.812;11.762;2022-09-27T03:52:45;2.20;;;1.00;;
22160;SDS011;49035;48.812;11.762;2022-09-27T03:55:10;2.30;;;1.50;;
22160;SDS011;49035;48.812;11.762;2022-09-27T03:57:37;1.80;;;1.23;;
22160;SDS011;49035;48.812;11.762;2022-09-27T04:00:03;1.93;;;1.40;;
22160;SDS011;49035;48.812;11.762;2022-09-27T04:02:30;3.20;;;1.40;;
22160;SDS011;49035;48.812;11.762;2022-09-27T04:04:56;1.98;;;1.70;;
22160;SDS011;49035;48.812;11.762;2022-09-27T04:07:22;1.63;;;1.53;;
22160;SDS011;49035;48.812;11.762;2022-09-27T04:09:47;1.40;;;1.27;;
22160;SDS011;49035;48.812;11.762;2022-09-27T04:12:13;2.00;;;1.60;;
22160;SDS011;49035;48.812;11.762;2022-09-27T04:14:39;2.33;;;1.57;;
22160;SDS011;49035;48.812;11.762;2022-09-27T04:17:05;2.97;;;1.77;;
22160;SDS011;49035;48.812;11.762;2022-09-27T04:19:31;3.20;;;1.60;;
22160;SDS011;49035;48.812;11.762;2022-09-27T04:21:56;2.30;;;1.50;;
22160;SDS011;49035;48.812;11.762;2022-09-27T04:24:22;1.77;;;1.50;;
22160;SDS011;49035;48.812;11.762;2022-09-27T04:26:48;2.27;;;1.60;;
22160;SDS011;49035;48.812;11.762;2022-09-27T04:29:13;4.53;;;1.57;;
22160;SDS011;49035;48.812;11.762;2022-09-27T04:31:40;1.70;;;1.60;;
22160;SDS011;49035;48.812;11.762;2022-09-27T04:34:08;1.73;;;1.40;;
22160;SDS011;49035;48.812;11.762;2022-09-27T04:36:34;2.57;;;1.70;;
22160;SDS011;49035;48.812;11.762;2022-09-27T04:39:00;1.60;;;1.50;;
22160;SDS011;49035;48.812;11.762;2022-09-27T04:41:28;1.97;;;1.50;;
22160;SDS011;49035;48.812;11.762;2022-09-27T04:43:54;1.63;;;1.50;;
22160;SDS011;49035;48.812;11.762;2022-09-27T04:46:20;2.03;;;1.50;;
22160;SDS011;49035;48.812;11.762;2022-09-27T04:48:47;1.30;;;1.20;;
22160;SDS011;49035;48.812;11.762;2022-09-27T04:51:13;2.37;;;1.70;;
22160;SDS011;49035;48.812;11.762;2022-09-27T04:53:41;4.27;;;2.07;;
22160;SDS011;49035;48.812;11.762;2022-09-27T04:56:07;2.87;;;1.90;;
22160;SDS011;49035;48.812;11.762;2022-09-27T04:58:33;4.73;;;2.70;;
22160;SDS011;49035;48.812;11.762;2022-09-27T05:00:59;5.97;;;2.70;;
22160;SDS011;49035;48.812;11.762;2022-09-27T05:03:27;5.97;;;2.60;;
22160;SDS011;49035;48.812;11.762;2022-09-27T05:05:53;4.97;;;3.00;;
22160;SDS011;49035;48.812;11.762;2022-09-27T05:08:19;4.77;;;2.87;;
22160;SDS011;49035;48.812;11.762;2022-09-27T05:10:45;2.73;;;2.30;;
22160;SDS011;49035;48.812;11.762;2022-09-27T05:13:11;9.13;;;2.33;;
22160;SDS011;49035;48.812;11.762;2022-09-27T05:15:37;2.67;;;2.33;;
22160;SDS011;49035;48.812;11.762;2022-09-27T05:18:04;4.67;;;2.00;;
22160;SDS011;49035;48.812;11.762;2022-09-27T05:20:31;2.40;;;1.90;;
22160;SDS011;49035;48.812;11.762;2022-09-27T05:22:57;2.70;;;1.90;;
22160;SDS011;49035;48.812;11.762;2022-09-27T05:25:23;2.67;;;1.63;;
22160;SDS011;49035;48.812;11.762;2022-09-27T05:27:49;2.17;;;1.97;;
22160;SDS011;49035;48.812;11.762;2022-09-27T05:30:15;3.10;;;1.63;;
22160;SDS011;49035;48.812;11.762;2022-09-27T05:32:44;3.40;;;1.83;;
22160;SDS011;49035;48.812;11.762;2022-09-27T05:35:14;2.00;;;1.53;;
22160;SDS011;49035;48.812;11.762;2022-09-27T05:37:42;1.63;;;1.40;;
22160;SDS011;49035;48.812;11.762;2022-09-27T05:40:08;3.10;;;1.67;;
22160;SDS011;49035;48.812;11.762;2022-09-27T05:42:34;1.80;;;1.60;;
22160;SDS011;49035;48.812;11.762;2022-09-27T05:45:04;1.97;;;1.40;;
22160;SDS011;49035;48.812;11.762;2022-09-27T05:47:31;1.60;;;1.50;;
22160;SDS011;49035;48.812;11.762;2022-09-27T05:49:56;6.53;;;2.00;;
22160;SDS011;49035;48.812;11.762;2022-09-27T05:52:22;2.20;;;1.10;;
22160;SDS011;49035;48.812;11.762;2022-09-27T05:54:47;1.83;;;1.30;;
22160;SDS011;49035;48.812;11.762;2022-09-27T05:57:13;5.43;;;1.50;;
22160;SDS011;49035;48.812;11.762;2022-09-27T05:59:38;1.63;;;1.00;;
22160;SDS011;49035;48.812;11.762;2022-09-27T06:02:05;1.20;;;1.10;;
22160;SDS011;49035;48.812;11.762;2022-09-27T06:04:31;1.10;;;1.00;;
22160;SDS011;49035;48.812;11.762;2022-09-27T06:06:56;1.33;;;0.93;;
22160;SDS011;49035;48.812;11.762;2022-09-27T06:09:23;1.47;;;1.10;;
22160;SDS011;49035;48.812;11.762;2022-09-27T06:11:49;4.00;;;0.93;;
22160;SDS011;49035;48.812;11.762;2022-09-27T06:14:15;1.77;;;0.80;;
22160;SDS011;49035;48.812;11.762;2022-09-27T06:16:41;1.60;;;1.03;;
22160;SDS011;49035;48.812;11.762;2022-09-27T06:19:06;1.00;;;0.77;;
22160;SDS011;49035;48.812;11.762;2022-09-27T06:21:32;1.80;;;0.73;;
22160;SDS011;49035;48.812;11.762;2022-09-27T06:23:58;1.00;;;0.90;;
22160;SDS011;49035;48.812;11.762;2022-09-27T06:26:24;1.23;;;0.80;;
22160;SDS011;49035;48.812;11.762;2022-09-27T06:28:54;1.50;;;0.97;;
22160;SDS011;49035;48.812;11.762;2022-09-27T06:31:20;2.47;;;1.00;;
22160;SDS011;49035;48.812;11.762;2022-09-27T06:33:46;2.00;;;0.80;;
22160;SDS011;49035;48.812;11.762;2022-09-27T06:36:12;1.93;;;0.90;;
22160;SDS011;49035;48.812;11.762;2022-09-27T06:38:38;3.27;;;0.80;;
22160;SDS011;49035;48.812;11.762;2022-09-27T06:41:04;2.27;;;1.00;;
22160;SDS011;49035;48.812;11.762;2022-09-27T06:43:37;2.07;;;1.00;;
22160;SDS011;49035;48.812;11.762;2022-09-27T06:46:03;1.70;;;0.80;;
22160;SDS011;49035;48.812;11.762;2022-09-27T06:48:29;1.47;;;0.80;;
22160;SDS011;49035;48.812;11.762;2022-09-27T06:50:56;0.85;;;0.70;;
22160;SDS011;49035;48.812;11.762;2022-09-27T06:53:22;2.73;;;0.70;;
22160;SDS011;49035;48.812;11.762;2022-09-27T06:55:48;1.20;;;1.00;;
22160;SDS011;49035;48.812;11.762;2022-09-27T06:58:15;1.85;;;0.70;;
22160;SDS011;49035;48.812;11.762;2022-09-27T07:00:59;0.98;;;0.98;;
22160;SDS011;49035;48.812;11.762;2022-09-27T07:03:25;2.08;;;1.00;;
22160;SDS011;49035;48.812;11.762;2022-09-27T07:05:59;5.88;;;1.02;;
22160;SDS011;49035;48.812;11.762;2022-09-27T07:08:29;1.45;;;0.80;;
22160;SDS011;49035;48.812;11.762;2022-09-27T07:10:55;1.63;;;0.83;;
22160;SDS011;49035;48.812;11.762;2022-09-27T07:13:26;1.60;;;1.10;;
22160;SDS011;49035;48.812;11.762;2022-09-27T07:15:55;1.47;;;0.80;;
22160;SDS011;49035;48.812;11.762;2022-09-27T07:18:21;1.13;;;0.93;;
22160;SDS011;49035;48.812;11.762;2022-09-27T07:20:47;1.65;;;0.77;;
22160;SDS011;49035;48.812;11.762;2022-09-27T07:23:13;1.60;;;0.70;;
22160;SDS011;49035;48.812;11.762;2022-09-27T07:25:39;1.05;;;0.82;;
22160;SDS011;49035;48.812;11.762;2022-09-27T07:28:06;3.28;;;0.93;;
22160;SDS011;49035;48.812;11.762;2022-09-27T07:30:33;1.92;;;0.73;;
22160;SDS011;49035;48.812;11.762;2022-09-27T07:33:01;1.30;;;0.80;;
22160;SDS011;49035;48.812;11.762;2022-09-27T07:35:29;2.95;;;0.93;;
22160;SDS011;49035;48.812;11.762;2022-09-27T07:37:55;1.33;;;0.73;;
22160;SDS011;49035;48.812;11.762;2022-09-27T07:40:23;1.63;;;1.00;;
22160;SDS011;49035;48.812;11.762;2022-09-27T07:42:56;3.53;;;1.03;;
22160;SDS011;49035;48.812;11.762;2022-09-27T07:45:23;2.88;;;0.98;;
22160;SDS011;49035;48.812;11.762;2022-09-27T07:47:52;1.65;;;0.93;;
22160;SDS011;49035;48.812;11.762;2022-09-27T07:50:17;3.50;;;1.23;;
22160;SDS011;49035;48.812;11.762;2022-09-27T07:52:44;2.60;;;0.77;;
22160;SDS011;49035;48.812;11.762;2022-09-27T07:55:12;1.30;;;0.90;;
22160;SDS011;49035;48.812;11.762;2022-09-27T07:57:39;2.00;;;0.88;;
22160;SDS011;49035;48.812;11.762;2022-09-27T08:00:06;1.38;;;1.10;;
22160;SDS011;49035;48.812;11.762;2022-09-27T08:02:34;2.15;;;1.02;;
22160;SDS011;49035;48.812;11.762;2022-09-27T08:05:00;1.57;;;1.10;;
22160;SDS011;49035;48.812;11.762;2022-09-27T08:07:27;1.55;;;0.88;;
22160;SDS011;49035;48.812;11.762;2022-09-27T08:09:53;2.07;;;0.90;;
22160;SDS011;49035;48.812;11.762;2022-09-27T08:12:19;2.90;;;1.08;;
22160;SDS011;49035;48.812;11.762;2022-09-27T08:14:45;1.47;;;0.90;;
22160;SDS011;49035;48.812;11.762;2022-09-27T08:17:12;1.95;;;1.05;;
22160;SDS011;49035;48.812;11.762;2022-09-27T08:19:38;2.80;;;1.13;;
22160;SDS011;49035;48.812;11.762;2022-09-27T08:22:04;3.73;;;0.90;;
22160;SDS011;49035;48.812;11.762;2022-09-27T08:24:31;2.45;;;1.10;;
22160;SDS011;49035;48.812;11.762;2022-09-27T08:26:57;2.20;;;0.93;;
22160;SDS011;49035;48.812;11.762;2022-09-27T08:29:22;2.53;;;0.98;;
22160;SDS011;49035;48.812;11.762;2022-09-27T08:31:49;2.40;;;0.85;;
22160;SDS011;49035;48.812;11.762;2022-09-27T08:34:15;2.22;;;0.85;;
22160;SDS011;49035;48.812;11.762;2022-09-27T08:36:41;6.18;;;0.93;;
22160;SDS011;49035;48.812;11.762;2022-09-27T08:39:07;1.00;;;0.60;;
22160;SDS011;49035;48.812;11.762;2022-09-27T08:41:34;0.98;;;0.80;;
22160;SDS011;49035;48.812;11.762;2022-09-27T08:49:27;1.40;;;0.90;;
22160;SDS011;49035;48.812;11.762;2022-09-27T08:51:57;2.53;;;0.70;;
22160;SDS011;49035;48.812;11.762;2022-09-27T08:54:25;0.40;;;0.40;;
22160;SDS011;49035;48.812;11.762;2022-09-27T08:56:59;1.85;;;0.60;;
22160;SDS011;49035;48.812;11.762;2022-09-27T08:59:30;2.72;;;0.70;;
22160;SDS011;49035;48.812;11.762;2022-09-27T09:02:01;1.80;;;0.80;;
22160;SDS011;49035;48.812;11.762;2022-09-27T09:04:35;1.77;;;0.88;;
22160;SDS011;49035;48.812;11.762;2022-09-27T09:12:19;1.90;;;0.50;;
22160;SDS011;49035;48.812;11.762;2022-09-27T09:20:43;2.05;;;0.60;;
22160;SDS011;49035;48.812;11.762;2022-09-27T09:26:33;1.27;;;0.68;;
22160;SDS011;49035;48.812;11.762;2022-09-27T09:29:12;1.02;;;0.60;;
22160;SDS011;49035;48.812;11.762;2022-09-27T09:35:00;1.15;;;0.88;;
22160;SDS011;49035;48.812;11.762;2022-09-27T09:37:44;0.70;;;0.70;;
22160;SDS011;49035;48.812;11.762;2022-09-27T09:42:41;1.40;;;0.80;;
22160;SDS011;49035;48.812;11.762;2022-09-27T09:45:16;1.10;;;0.80;;
22160;SDS011;49035;48.812;11.762;2022-09-27T09:47:54;1.17;;;0.65;;
22160;SDS011;49035;48.812;11.762;2022-09-27T09:50:23;0.75;;;0.60;;
22160;SDS011;49035;48.812;11.762;2022-09-27T09:53:01;1.15;;;0.50;;
22160;SDS011;49035;48.812;11.762;2022-09-27T09:55:36;0.60;;;0.60;;
22160;SDS011;49035;48.812;11.762;2022-09-27T09:58:18;1.98;;;0.70;;
22160;SDS011;49035;48.812;11.762;2022-09-27T10:00:49;0.65;;;0.50;;
22160;SDS011;49035;48.812;11.762;2022-09-27T10:03:17;0.70;;;0.60;;
22160;SDS011;49035;48.812;11.762;2022-09-27T10:05:43;1.40;;;0.70;;
22160;SDS011;49035;48.812;11.762;2022-09-27T10:08:19;1.17;;;0.60;;
22160;SDS011;49035;48.812;11.762;2022-09-27T10:10:46;1.13;;;0.63;;
22160;SDS011;49035;48.812;11.762;2022-09-27T10:13:16;0.90;;;0.70;;
22160;SDS011;49035;48.812;11.762;2022-09-27T10:15:49;0.55;;;0.55;;
22160;SDS011;49035;48.812;11.762;2022-09-27T10:18:20;0.68;;;0.43;;
22160;SDS011;49035;48.812;11.762;2022-09-27T10:20:51;0.80;;;0.50;;
22160;SDS011;49035;48.812;11.762;2022-09-27T10:23:21;0.82;;;0.50;;
22160;SDS011;49035;48.812;11.762;2022-09-27T10:25:51;1.25;;;0.52;;
22160;SDS011;49035;48.812;11.762;2022-09-27T10:28:28;0.60;;;0.60;;
22160;SDS011;49035;48.812;11.762;2022-09-27T10:30:57;1.80;;;0.98;;
22160;SDS011;49035;48.812;11.762;2022-09-27T10:33:24;1.88;;;0.85;;
22160;SDS011;49035;48.812;11.762;2022-09-27T10:35:52;0.52;;;0.50;;
22160;SDS011;49035;48.812;11.762;2022-09-27T10:40:43;1.42;;;0.40;;
22160;SDS011;49035;48.812;11.762;2022-09-27T10:46:11;1.10;;;0.40;;
22160;SDS011;49035;48.812;11.762;2022-09-27T10:48:45;2.60;;;0.50;;
22160;SDS011;49035;48.812;11.762;2022-09-27T10:51:21;0.40;;;0.40;;
22160;SDS011;49035;48.812;11.762;2022-09-27T10:53:50;0.40;;;0.40;;
22160;SDS011;49035;48.812;11.762;2022-09-27T10:56:25;0.50;;;0.50;;
22160;SDS011;49035;48.812;11.762;2022-09-27T10:58:53;1.08;;;0.60;;
22160;SDS011;49035;48.812;11.762;2022-09-27T11:01:20;2.38;;;0.60;;
22160;SDS011;49035;48.812;11.762;2022-09-27T11:03:56;1.17;;;0.40;;
22160;SDS011;49035;48.812;11.762;2022-09-27T11:08:49;1.00;;;0.40;;
22160;SDS011;49035;48.812;11.762;2022-09-27T11:11:23;2.00;;;0.50;;
22160;SDS011;49035;48.812;11.762;2022-09-27T11:14:03;0.80;;;0.80;;
22160;SDS011;49035;48.812;11.762;2022-09-27T11:16:49;0.45;;;0.45;;
22160;SDS011;49035;48.812;11.762;2022-09-27T11:21:58;0.75;;;0.40;;
22160;SDS011;49035;48.812;11.762;2022-09-27T11:27:44;2.35;;;0.57;;
22160;SDS011;49035;48.812;11.762;2022-09-27T11:30:20;1.35;;;0.60;;
22160;SDS011;49035;48.812;11.762;2022-09-27T11:32:55;1.58;;;0.50;;
22160;SDS011;49035;48.812;11.762;2022-09-27T11:35:46;0.60;;;0.60;;
22160;SDS011;49035;48.812;11.762;2022-09-27T11:46:29;1.40;;;0.57;;
22160;SDS011;49035;48.812;11.762;2022-09-27T11:49:26;0.70;;;0.70;;
22160;SDS011;49035;48.812;11.762;2022-09-27T11:51:58;0.85;;;0.70;;
22160;SDS011;49035;48.812;11.762;2022-09-27T11:54:56;0.60;;;0.60;;
22160;SDS011;49035;48.812;11.762;2022-09-27T11:57:30;0.77;;;0.50;;
22160;SDS011;49035;48.812;11.762;2022-09-27T12:00:07;0.60;;;0.60;;
22160;SDS011;49035;48.812;11.762;2022-09-27T12:05:46;0.70;;;0.70;;
22160;SDS011;49035;48.812;11.762;2022-09-27T12:14:18;0.70;;;0.70;;
22160;SDS011;49035;48.812;11.762;2022-09-27T12:17:09;1.08;;;0.90;;
22160;SDS011;49035;48.812;11.762;2022-09-27T12:19:41;3.40;;;1.00;;
22160;SDS011;49035;48.812;11.762;2022-09-27T12:22:15;3.95;;;0.90;;
22160;SDS011;49035;48.812;11.762;2022-09-27T12:24:50;1.50;;;0.97;;
22160;SDS011;49035;48.812;11.762;2022-09-27T12:30:12;0.70;;;0.70;;
22160;SDS011;49035;48.812;11.762;2022-09-27T12:35:51;1.07;;;0.70;;
22160;SDS011;49035;48.812;11.762;2022-09-27T12:41:17;1.35;;;1.00;;
22160;SDS011;49035;48.812;11.762;2022-09-27T12:43:47;1.10;;;1.00;;
22160;SDS011;49035;48.812;11.762;2022-09-27T12:49:14;1.58;;;0.80;;
22160;SDS011;49035;48.812;11.762;2022-09-27T12:51:50;1.67;;;0.60;;
22160;SDS011;49035;48.812;11.762;2022-09-27T12:54:36;1.38;;;0.65;;
22160;SDS011;49035;48.812;11.762;2022-09-27T13:05:37;0.45;;;0.45;;
22160;SDS011;49035;48.812;11.762;2022-09-27T13:11:50;1.55;;;0.40;;
22160;SDS011;49035;48.812;11.762;2022-09-27T13:14:47;0.70;;;0.70;;
22160;SDS011;49035;48.812;11.762;2022-09-27T13:17:33;1.33;;;0.60;;
22160;SDS011;49035;48.812;11.762;2022-09-27T13:22:51;0.75;;;0.65;;
22160;SDS011;49035;48.812;11.762;2022-09-27T13:31:03;1.10;;;0.57;;
22160;SDS011;49035;48.812;11.762;2022-09-27T13:46:59;1.73;;;0.70;;
22160;SDS011;49035;48.812;11.762;2022-09-27T13:49:41;0.75;;;0.70;;
22160;SDS011;49035;48.812;11.762;2022-09-27T13:52:22;1.48;;;0.90;;
22160;SDS011;49035;48.812;11.762;2022-09-27T13:54:58;1.23;;;0.77;;
22160;SDS011;49035;48.812;11.762;2022-09-27T14:02:54;1.35;;;0.95;;
22160;SDS011;49035;48.812;11.762;2022-09-27T14:05:47;1.60;;;0.90;;
22160;SDS011;49035;48.812;11.762;2022-09-27T14:10:56;1.35;;;1.00;;
22160;SDS011;49035;48.812;11.762;2022-09-27T14:13:23;0.95;;;0.88;;
22160;SDS011;49035;48.812;11.762;2022-09-27T14:15:50;1.00;;;0.82;;
22160;SDS011;49035;48.812;11.762;2022-09-27T14:18:18;2.90;;;1.10;;
22160;SDS011;49035;48.812;11.762;2022-09-27T14:20:44;1.80;;;1.10;;
22160;SDS011;49035;48.812;11.762;2022-09-27T14:23:20;0.95;;;0.88;;
22160;SDS011;49035;48.812;11.762;2022-09-27T14:25:48;1.55;;;0.85;;
22160;SDS011;49035;48.812;11.762;2022-09-27T14:28:21;1.65;;;0.70;;
22160;SDS011;49035;48.812;11.762;2022-09-27T14:33:47;1.80;;;0.80;;
22160;SDS011;49035;48.812;11.762;2022-09-27T14:36:22;0.90;;;0.70;;
22160;SDS011;49035;48.812;11.762;2022-09-27T14:39:19;1.88;;;1.00;;
22160;SDS011;49035;48.812;11.762;2022-09-27T14:41:47;1.23;;;0.70;;
22160;SDS011;49035;48.812;11.762;2022-09-27T14:44:14;1.08;;;0.77;;
22160;SDS011;49035;48.812;11.762;2022-09-27T14:46:42;0.75;;;0.70;;
22160;SDS011;49035;48.812;11.762;2022-09-27T14:49:10;1.30;;;0.80;;
22160;SDS011;49035;48.812;11.762;2022-09-27T14:51:51;2.78;;;1.08;;
22160;SDS011;49035;48.812;11.762;2022-09-27T14:54:22;2.25;;;0.93;;
22160;SDS011;49035;48.812;11.762;2022-09-27T14:56:54;1.80;;;1.02;;
22160;SDS011;49035;48.812;11.762;2022-09-27T14:59:23;1.13;;;0.90;;
22160;SDS011;49035;48.812;11.762;2022-09-27T15:01:55;1.05;;;0.70;;
22160;SDS011;49035;48.812;11.762;2022-09-27T15:04:24;1.95;;;1.08;;
22160;SDS011;49035;48.812;11.762;2022-09-27T15:06:52;1.52;;;1.05;;
22160;SDS011;49035;48.812;11.762;2022-09-27T15:09:19;2.58;;;1.77;;
22160;SDS011;49035;48.812;11.762;2022-09-27T15:11:52;2.55;;;0.98;;
22160;SDS011;49035;48.812;11.762;2022-09-27T15:14:21;1.55;;;1.17;;
22160;SDS011;49035;48.812;11.762;2022-09-27T15:16:49;8.45;;;2.10;;
22160;SDS011;49035;48.812;11.762;2022-09-27T15:19:23;4.90;;;2.30;;
22160;SDS011;49035;48.812;11.762;2022-09-27T15:21:51;7.73;;;2.03;;
22160;SDS011;49035;48.812;11.762;2022-09-27T15:24:36;7.17;;;2.30;;
22160;SDS011;49035;48.812;11.762;2022-09-27T15:27:15;2.50;;;1.47;;
22160;SDS011;49035;48.812;11.762;2022-09-27T15:29:46;3.10;;;1.27;;
22160;SDS011;49035;48.812;11.762;2022-09-27T15:32:20;4.07;;;1.40;;
22160;SDS011;49035;48.812;11.762;2022-09-27T15:34:48;2.27;;;1.30;;
22160;SDS011;49035;48.812;11.762;2022-09-27T15:37:34;4.47;;;1.80;;
22160;SDS011;49035;48.812;11.762;2022-09-27T15:42:55;2.90;;;1.43;;
22160;SDS011;49035;48.812;11.762;2022-09-27T15:45:28;2.80;;;1.97;;
22160;SDS011;49035;48.812;11.762;2022-09-27T15:48:05;3.43;;;2.20;;
22160;SDS011;49035;48.812;11.762;2022-09-27T15:50:39;1.97;;;1.33;;
22160;SDS011;49035;48.812;11.762;2022-09-27T15:53:05;2.00;;;1.80;;
22160;SDS011;49035;48.812;11.762;2022-09-27T15:55:33;2.17;;;1.77;;
22160;SDS011;49035;48.812;11.762;2022-09-27T15:58:14;3.00;;;1.93;;
22160;SDS011;49035;48.812;11.762;2022-09-27T16:00:54;2.83;;;1.50;;
22160;SDS011;49035;48.812;11.762;2022-09-27T16:03:26;2.53;;;1.93;;
22160;SDS011;49035;48.812;11.762;2022-09-27T16:05:56;3.67;;;1.40;;
22160;SDS011;49035;48.812;11.762;2022-09-27T16:08:24;2.07;;;1.77;;
22160;SDS011;49035;48.812;11.762;2022-09-27T16:10:51;0.87;;;0.87;;
22160;SDS011;49035;48.812;11.762;2022-09-27T16:13:19;2.47;;;1.10;;
22160;SDS011;49035;48.812;11.762;2022-09-27T16:15:45;1.00;;;1.00;;
22160;SDS011;49035;48.812;11.762;2022-09-27T16:18:12;2.43;;;1.47;;
22160;SDS011;49035;48.812;11.762;2022-09-27T16:20:38;3.03;;;1.83;;
22160;SDS011;49035;48.812;11.762;2022-09-27T16:23:04;2.37;;;1.90;;
22160;SDS011;49035;48.812;11.762;2022-09-27T16:25:30;3.57;;;2.13;;
22160;SDS011;49035;48.812;11.762;2022-09-27T16:27:56;3.93;;;2.20;;
22160;SDS011;49035;48.812;11.762;2022-09-27T16:30:22;2.70;;;2.17;;
22160;SDS011;49035;48.812;11.762;2022-09-27T16:32:48;3.87;;;2.17;;
22160;SDS011;49035;48.812;11.762;2022-09-27T16:35:14;3.60;;;2.00;;
22160;SDS011;49035;48.812;11.762;2022-09-27T16:37:41;1.67;;;1.50;;
22160;SDS011;49035;48.812;11.762;2022-09-27T16:40:07;1.30;;;1.20;;
22160;SDS011;49035;48.812;11.762;2022-09-27T16:42:34;2.50;;;1.63;;
22160;SDS011;49035;48.812;11.762;2022-09-27T16:45:00;1.83;;;1.43;;
22160;SDS011;49035;48.812;11.762;2022-09-27T16:47:27;3.23;;;1.93;;
22160;SDS011;49035;48.812;11.762;2022-09-27T16:49:53;7.57;;;2.60;;
22160;SDS011;49035;48.812;11.762;2022-09-27T16:52:37;6.67;;;2.63;;
22160;SDS011;49035;48.812;11.762;2022-09-27T16:55:03;5.47;;;2.30;;
22160;SDS011;49035;48.812;11.762;2022-09-27T16:57:30;5.73;;;2.17;;
22160;SDS011;49035;48.812;11.762;2022-09-27T16:59:58;3.27;;;1.83;;
22160;SDS011;49035;48.812;11.762;2022-09-27T17:02:28;3.03;;;1.60;;
22160;SDS011;49035;48.812;11.762;2022-09-27T17:04:53;1.87;;;1.40;;
22160;SDS011;49035;48.812;11.762;2022-09-27T17:07:19;3.33;;;1.70;;
22160;SDS011;49035;48.812;11.762;2022-09-27T17:09:45;2.83;;;1.60;;
22160;SDS011;49035;48.812;11.762;2022-09-27T17:12:12;4.83;;;2.77;;
22160;SDS011;49035;48.812;11.762;2022-09-27T17:14:38;2.10;;;1.97;;
22160;SDS011;49035;48.812;11.762;2022-09-27T17:17:04;2.43;;;1.93;;
22160;SDS011;49035;48.812;11.762;2022-09-27T17:19:30;2.50;;;2.00;;